createdAt,value
2022-10-18T00:02:14.050Z,29.38
2022-10-18T00:04:40.605Z,31.65
2022-10-18T00:07:07.642Z,36.90
2022-10-18T00:09:34.271Z,34.42
2022-10-18T00:12:00.899Z,29.13
2022-10-18T00:14:27.489Z,37.10
2022-10-18T00:16:54.220Z,42.85
2022-10-18T00:19:20.841Z,47.15
2022-10-18T00:21:51.434Z,33.00
2022-10-18T00:24:18.128Z,37.97
2022-10-18T00:26:44.733Z,35.83
2022-10-18T00:29:14.884Z,37.53
2022-10-18T00:31:43.435Z,44.67
2022-10-18T00:34:12.981Z,46.08
2022-10-18T00:36:39.975Z,39.72
2022-10-18T00:39:07.854Z,41.40
2022-10-18T00:41:36.458Z,31.58
2022-10-18T00:44:13.597Z,34.72
2022-10-18T00:46:42.864Z,31.88
2022-10-18T00:49:35.619Z,37.15
2022-10-18T00:52:11.003Z,33.28
2022-10-18T00:54:40.771Z,34.25
2022-10-18T00:57:08.206Z,31.73
2022-10-18T00:59:36.061Z,34.42
2022-10-18T01:02:03.506Z,32.55
2022-10-18T01:04:30.211Z,35.03
2022-10-18T01:07:27.778Z,32.08
2022-10-18T01:10:26.968Z,33.13
2022-10-18T01:13:25.971Z,35.92
2022-10-18T01:16:01.995Z,44.22
2022-10-18T01:18:48.675Z,44.55
2022-10-18T01:21:40.684Z,46.17
2022-10-18T01:24:41.299Z,41.53
2022-10-18T01:27:40.615Z,40.28
2022-10-18T01:30:37.930Z,41.65
2022-10-18T01:33:10.294Z,41.00
2022-10-18T01:35:45.591Z,36.85
2022-10-18T01:38:17.946Z,37.33
2022-10-18T01:40:47.869Z,42.20
2022-10-18T01:43:16.633Z,43.90
2022-10-18T01:48:11.703Z,39.20
2022-10-18T01:50:38.332Z,44.60
2022-10-18T01:53:04.859Z,37.53
2022-10-18T01:55:42.678Z,40.05
2022-10-18T01:58:29.513Z,38.40
2022-10-18T02:01:08.603Z,40.67
2022-10-18T02:03:40.925Z,30.38
2022-10-18T02:06:22.996Z,30.75
2022-10-18T02:08:56.841Z,36.60
2022-10-18T02:11:23.665Z,30.48
2022-10-18T02:13:53.363Z,37.33
2022-10-18T02:16:40.571Z,34.17
2022-10-18T02:19:20.786Z,32.83
2022-10-18T02:21:50.055Z,35.40
2022-10-18T02:24:19.530Z,32.97
2022-10-18T02:26:46.135Z,36.30
2022-10-18T02:29:13.134Z,30.92
2022-10-18T02:31:53.010Z,33.35
2022-10-18T02:34:27.695Z,29.83
2022-10-18T02:36:59.000Z,44.55
2022-10-18T02:39:32.846Z,36.47
2022-10-18T02:42:00.033Z,33.42
2022-10-18T02:44:26.912Z,42.00
2022-10-18T02:46:53.743Z,38.60
2022-10-18T02:49:20.382Z,42.88
2022-10-18T02:51:46.958Z,32.28
2022-10-18T02:54:13.568Z,31.42
2022-10-18T02:56:40.278Z,28.02
2022-10-18T02:59:07.486Z,35.00
2022-10-18T03:01:36.301Z,30.30
2022-10-18T03:04:03.890Z,29.33
2022-10-18T03:06:30.797Z,32.42
2022-10-18T03:08:57.621Z,30.98
2022-10-18T03:11:24.323Z,30.20
2022-10-18T03:13:51.142Z,38.15
2022-10-18T03:16:17.758Z,36.55
2022-10-18T03:18:44.461Z,30.45
2022-10-18T03:21:11.022Z,34.10
2022-10-18T03:23:37.685Z,37.78
2022-10-18T03:26:04.492Z,41.97
2022-10-18T03:28:31.326Z,34.25
2022-10-18T03:31:02.506Z,39.25
2022-10-18T03:33:29.235Z,37.20
2022-10-18T03:35:55.897Z,29.65
2022-10-18T03:38:22.482Z,28.98
2022-10-18T03:40:49.131Z,32.42
2022-10-18T03:43:15.802Z,41.13
2022-10-18T03:45:42.653Z,37.35
2022-10-18T03:48:09.175Z,36.03
2022-10-18T03:50:35.797Z,38.10
2022-10-18T03:53:02.543Z,35.42
2022-10-18T03:55:29.215Z,35.65
2022-10-18T03:57:55.801Z,37.85
2022-10-18T04:00:22.921Z,43.92
2022-10-18T04:02:52.069Z,42.15
2022-10-18T04:05:24.408Z,44.67
2022-10-18T04:07:51.007Z,41.10
2022-10-18T04:10:18.900Z,48.63
2022-10-18T04:12:45.573Z,36.88
2022-10-18T04:15:12.388Z,44.85
2022-10-18T04:17:38.972Z,47.25
2022-10-18T04:20:06.749Z,45.83
2022-10-18T04:22:33.373Z,46.10
2022-10-18T04:24:59.924Z,43.22
2022-10-18T04:27:26.563Z,51.80
2022-10-18T04:29:53.190Z,42.80
2022-10-18T04:32:19.748Z,43.15
2022-10-18T04:34:46.363Z,40.00
2022-10-18T04:37:12.958Z,47.40
2022-10-18T04:39:39.522Z,47.17
2022-10-18T04:42:06.107Z,44.67
2022-10-18T04:44:32.663Z,44.28
2022-10-18T04:46:59.262Z,45.30
2022-10-18T04:49:25.842Z,50.92
2022-10-18T04:51:52.429Z,47.45
2022-10-18T04:54:19.016Z,40.60
2022-10-18T04:56:45.597Z,43.92
2022-10-18T04:59:12.700Z,45.58
2022-10-18T05:01:39.471Z,44.90
2022-10-18T05:04:06.113Z,43.53
2022-10-18T05:06:32.649Z,45.95
2022-10-18T05:08:59.210Z,44.95
2022-10-18T05:11:25.830Z,42.83
2022-10-18T05:13:52.413Z,41.33
2022-10-18T05:16:19.019Z,37.28
2022-10-18T05:18:45.782Z,40.42
2022-10-18T05:21:13.610Z,36.25
2022-10-18T05:23:40.139Z,38.65
2022-10-18T05:26:07.635Z,46.47
2022-10-18T05:28:39.568Z,43.30
2022-10-18T05:31:09.858Z,45.22
2022-10-18T05:33:36.966Z,37.78
2022-10-18T05:36:04.516Z,38.92
2022-10-18T05:38:31.453Z,40.38
2022-10-18T05:40:59.087Z,39.47
2022-10-18T05:43:29.679Z,40.22
2022-10-18T05:45:56.517Z,42.50
2022-10-18T05:48:23.206Z,49.40
2022-10-18T05:50:49.758Z,28.33
2022-10-18T05:53:35.760Z,35.05
2022-10-18T05:56:03.858Z,39.33
2022-10-18T05:58:30.462Z,39.80
2022-10-18T06:01:05.344Z,40.60
2022-10-18T06:03:32.638Z,52.67
2022-10-18T06:06:10.180Z,44.65
2022-10-18T06:08:37.607Z,48.97
2022-10-18T06:11:13.958Z,44.63
2022-10-18T06:13:46.324Z,52.50
2022-10-18T06:16:14.985Z,40.28
2022-10-18T06:18:42.095Z,52.63
2022-10-18T06:21:09.606Z,40.53
2022-10-18T06:23:36.204Z,42.03
2022-10-18T06:26:04.979Z,44.28
2022-10-18T06:30:58.366Z,46.38
2022-10-18T06:33:25.521Z,49.83
2022-10-18T06:36:00.380Z,42.30
2022-10-18T06:38:27.957Z,48.72
2022-10-18T06:40:55.636Z,43.92
2022-10-18T06:43:22.328Z,33.35
2022-10-18T06:45:49.452Z,37.63
2022-10-18T06:48:16.671Z,34.97
2022-10-18T06:50:50.304Z,23.05
2022-10-18T06:53:17.139Z,24.30
2022-10-18T06:55:43.839Z,26.58
2022-10-18T06:58:10.434Z,26.77
2022-10-18T07:00:36.989Z,25.38
2022-10-18T07:03:03.622Z,28.08
2022-10-18T07:07:58.358Z,20.10
2022-10-18T07:10:25.406Z,18.38
2022-10-18T07:12:59.240Z,20.05
2022-10-18T07:15:38.569Z,18.20
2022-10-18T07:18:05.651Z,22.35
2022-10-18T07:20:32.256Z,17.77
2022-10-18T07:22:59.172Z,22.92
2022-10-18T07:25:28.407Z,17.88
2022-10-18T07:27:57.420Z,22.55
2022-10-18T07:30:24.024Z,19.95
2022-10-18T07:32:51.870Z,20.08
2022-10-18T07:35:18.522Z,29.92
2022-10-18T07:37:45.111Z,31.25
2022-10-18T07:40:12.212Z,25.65
2022-10-18T07:42:38.867Z,23.02
2022-10-18T07:45:05.751Z,25.63
2022-10-18T07:47:35.115Z,29.33
2022-10-18T07:50:02.078Z,25.38
2022-10-18T07:52:28.645Z,23.90
2022-10-18T07:54:55.218Z,29.63
2022-10-18T07:57:40.488Z,32.40
2022-10-18T08:00:09.018Z,27.77
2022-10-18T08:02:35.608Z,35.08
2022-10-18T08:05:02.176Z,39.75
2022-10-18T08:07:28.889Z,27.60
2022-10-18T08:09:55.773Z,31.27
2022-10-18T08:12:23.112Z,37.53
2022-10-18T08:14:49.657Z,35.53
2022-10-18T08:17:16.233Z,34.45
2022-10-18T08:19:52.793Z,39.28
2022-10-18T08:22:29.305Z,39.03
2022-10-18T08:24:56.056Z,38.85
2022-10-18T08:27:26.055Z,42.63
2022-10-18T08:29:53.003Z,44.67
2022-10-18T08:32:19.569Z,49.40
2022-10-18T08:34:46.133Z,39.90
2022-10-18T08:37:12.896Z,41.22
2022-10-18T08:39:39.436Z,45.97
2022-10-18T08:42:17.858Z,46.35
2022-10-18T08:44:47.949Z,46.03
2022-10-18T08:47:52.021Z,47.05
2022-10-18T12:03:14.398Z,28.52
2022-10-18T12:05:44.693Z,29.85
2022-10-18T12:08:14.253Z,35.25
2022-10-18T12:11:04.051Z,31.77
2022-10-18T12:13:56.943Z,35.10
2022-10-18T12:16:49.523Z,28.98
2022-10-18T12:19:23.712Z,28.00
2022-10-18T12:21:56.422Z,27.77
2022-10-18T12:24:28.639Z,29.10
2022-10-18T12:26:59.729Z,27.02
2022-10-18T12:29:30.158Z,22.27
2022-10-18T12:32:07.140Z,24.77
2022-10-18T12:34:43.926Z,17.13
2022-10-18T12:37:45.255Z,24.40
2022-10-18T12:40:21.458Z,22.63
2022-10-18T12:42:50.913Z,27.20
2022-10-18T12:45:23.138Z,16.48
2022-10-18T12:47:50.262Z,19.75
2022-10-18T12:50:37.233Z,18.65
2022-10-18T12:53:28.015Z,13.68
2022-10-18T12:55:55.860Z,19.80
2022-10-18T12:58:32.096Z,22.02
2022-10-18T13:01:02.279Z,20.00
2022-10-18T13:03:39.543Z,19.13
2022-10-18T13:06:06.940Z,19.27
2022-10-18T13:08:42.169Z,20.47
2022-10-18T13:11:08.938Z,18.90
2022-10-18T13:14:17.019Z,20.10
2022-10-18T13:17:28.172Z,21.38
2022-10-18T13:20:26.113Z,22.67
2022-10-18T13:23:02.365Z,22.25
2022-10-18T13:25:41.223Z,22.92
2022-10-18T13:28:38.541Z,24.83
2022-10-18T13:31:29.986Z,22.08
2022-10-18T13:34:25.246Z,26.90
2022-10-18T13:37:03.685Z,30.98
2022-10-18T13:39:31.595Z,27.60
2022-10-18T13:41:58.243Z,27.83
2022-10-18T13:44:37.346Z,29.27
2022-10-18T13:47:04.003Z,33.40
2022-10-18T13:49:48.332Z,33.13
2022-10-18T13:52:20.809Z,34.58
2022-10-18T13:55:14.965Z,37.25
2022-10-18T13:57:47.360Z,34.03
2022-10-18T14:00:35.679Z,34.90
2022-10-18T14:03:37.525Z,29.30
2022-10-18T14:06:06.792Z,28.42
2022-10-18T14:09:25.591Z,27.92
2022-10-18T14:12:19.092Z,37.28
2022-10-18T14:15:08.435Z,29.92
2022-10-18T14:17:46.510Z,31.58
2022-10-18T14:23:18.842Z,30.02
2022-10-18T14:25:45.919Z,37.88
2022-10-18T14:28:16.674Z,35.08
2022-10-18T14:31:06.324Z,30.83
2022-10-18T14:33:32.919Z,33.00
2022-10-18T14:36:03.874Z,32.88
2022-10-18T14:38:30.926Z,37.10
2022-10-18T14:41:22.298Z,31.30
2022-10-18T14:43:49.959Z,26.80
2022-10-18T14:46:28.969Z,34.08
2022-10-18T14:49:04.328Z,36.20
2022-10-18T14:51:35.475Z,42.00
2022-10-18T14:54:02.887Z,39.72
2022-10-18T14:56:31.966Z,36.47
2022-10-18T14:59:02.143Z,36.60
2022-10-18T15:01:32.064Z,38.97
2022-10-18T15:04:11.688Z,37.55
2022-10-18T15:06:43.802Z,42.00
2022-10-18T15:09:12.603Z,36.33
2022-10-18T15:11:41.465Z,30.60
2022-10-18T15:14:14.434Z,28.80
2022-10-18T15:16:41.406Z,34.78
2022-10-18T15:19:14.140Z,37.28
2022-10-18T15:25:06.057Z,33.17
2022-10-18T15:27:37.011Z,42.28
2022-10-18T15:30:22.854Z,33.97
2022-10-18T15:32:57.982Z,34.63
2022-10-18T15:35:32.886Z,38.53
2022-10-18T15:38:04.752Z,40.38
2022-10-18T15:40:35.268Z,31.88
2022-10-18T15:43:06.037Z,40.85
2022-10-18T15:45:45.452Z,42.38
2022-10-18T15:48:15.024Z,37.53
2022-10-18T15:50:44.258Z,37.30
2022-10-18T15:53:23.076Z,44.05
2022-10-18T15:56:08.152Z,30.30
2022-10-18T15:58:46.415Z,42.42
2022-10-18T16:04:01.207Z,38.08
2022-10-18T16:06:27.873Z,38.25
2022-10-18T16:08:54.585Z,34.67
2022-10-18T16:11:25.848Z,37.95
2022-10-18T16:13:55.245Z,30.48
2022-10-18T16:16:27.366Z,31.45
2022-10-18T16:18:54.568Z,40.05
2022-10-18T16:21:26.399Z,34.05
2022-10-18T16:23:53.437Z,33.97
2022-10-18T16:26:21.286Z,35.25
2022-10-18T16:28:48.615Z,45.92
2022-10-18T16:31:21.749Z,36.83
2022-10-18T16:33:49.449Z,34.08
2022-10-18T16:36:20.399Z,35.67
2022-10-18T16:38:48.051Z,42.72
2022-10-18T16:41:15.936Z,52.50
2022-10-18T16:43:44.447Z,40.95
2022-10-18T16:48:44.329Z,32.08
2022-10-18T16:51:12.935Z,40.08
2022-10-18T16:53:39.517Z,41.50
2022-10-18T16:56:13.433Z,40.05
2022-10-18T16:58:40.114Z,41.40
2022-10-18T17:01:08.963Z,49.15
2022-10-18T17:03:36.167Z,40.08
2022-10-18T17:06:03.151Z,36.47
2022-10-18T17:08:29.785Z,40.13
2022-10-18T17:10:58.699Z,41.47
2022-10-18T17:13:26.446Z,39.95
2022-10-18T17:15:53.713Z,37.73
2022-10-18T17:18:28.044Z,41.53
2022-10-18T17:20:55.272Z,40.47
2022-10-18T17:23:22.045Z,43.83
2022-10-18T17:26:04.718Z,42.53
2022-10-18T17:28:33.851Z,44.78
2022-10-18T17:31:00.456Z,38.40
2022-10-18T17:33:27.017Z,43.85
2022-10-18T17:35:53.730Z,47.60
2022-10-18T17:38:20.301Z,40.90
2022-10-18T17:40:46.846Z,37.30
2022-10-18T17:43:13.957Z,48.47
2022-10-18T17:45:48.979Z,54.08
2022-10-18T17:48:15.535Z,51.15
2022-10-18T17:50:42.394Z,44.75
2022-10-18T17:53:10.753Z,48.78
2022-10-18T17:55:37.417Z,37.30
2022-10-18T17:58:04.028Z,41.65
2022-10-18T18:00:30.682Z,45.05
2022-10-18T18:03:00.744Z,43.42
2022-10-18T18:05:32.957Z,44.40
2022-10-18T18:08:03.750Z,42.25
2022-10-18T18:10:33.136Z,48.40
2022-10-18T18:13:00.209Z,44.97
2022-10-18T18:15:26.908Z,48.15
2022-10-18T18:17:57.094Z,48.05
2022-10-18T18:20:24.803Z,50.47
2022-10-18T18:22:51.958Z,48.60
2022-10-18T18:25:18.710Z,44.47
2022-10-18T18:27:45.320Z,35.40
2022-10-18T18:30:12.117Z,52.50
2022-10-18T18:32:38.772Z,36.67
2022-10-18T18:35:05.723Z,42.80
2022-10-18T18:37:32.419Z,41.83
2022-10-18T18:39:58.951Z,39.90
2022-10-18T18:42:25.470Z,43.55
2022-10-18T18:44:52.047Z,40.22
2022-10-18T18:47:21.528Z,48.55
2022-10-18T18:49:48.561Z,46.33
2022-10-18T18:52:15.224Z,38.00
2022-10-18T18:54:41.767Z,37.63
2022-10-18T18:57:08.625Z,36.17
2022-10-18T18:59:35.364Z,42.42
2022-10-18T19:02:01.956Z,43.72
2022-10-18T19:04:29.288Z,54.00
2022-10-18T19:06:55.924Z,39.90
2022-10-18T19:09:23.039Z,50.95
2022-10-18T19:11:55.413Z,47.78
2022-10-18T19:14:24.175Z,45.22
2022-10-18T19:16:53.720Z,37.45
2022-10-18T19:21:51.739Z,44.67
2022-10-18T19:24:19.980Z,42.97
2022-10-18T19:26:55.897Z,44.75
2022-10-18T19:29:34.894Z,45.17
2022-10-18T19:32:04.842Z,37.67
2022-10-18T19:34:32.497Z,52.47
2022-10-18T19:36:59.252Z,39.63
2022-10-18T19:39:28.211Z,50.05
2022-10-18T19:41:57.677Z,41.42
2022-10-18T19:44:27.752Z,43.00
2022-10-18T19:46:55.195Z,53.50
2022-10-18T19:49:22.208Z,39.85
2022-10-18T19:51:49.237Z,45.45
2022-10-18T19:54:16.529Z,39.95
2022-10-18T19:56:44.160Z,36.83
2022-10-18T19:59:12.077Z,40.75
2022-10-18T20:01:39.427Z,51.67
2022-10-18T20:04:08.363Z,38.25
2022-10-18T20:06:41.760Z,42.90
2022-10-18T20:09:12.393Z,51.05
2022-10-18T20:11:44.554Z,41.47
2022-10-18T20:14:11.635Z,33.60
2022-10-18T20:16:41.399Z,49.20
2022-10-18T20:19:08.132Z,42.50
2022-10-18T20:21:36.325Z,38.83
2022-10-18T20:24:07.288Z,41.95
2022-10-18T20:26:35.888Z,32.53
2022-10-18T20:29:02.632Z,41.90
2022-10-18T20:31:38.918Z,43.47
2022-10-18T20:34:12.117Z,55.20
2022-10-18T20:36:39.612Z,42.83
2022-10-18T20:39:06.799Z,39.67
2022-10-18T20:41:37.994Z,45.42
2022-10-18T20:44:10.707Z,43.70
2022-10-18T20:46:39.002Z,40.90
2022-10-18T20:49:07.857Z,38.95
2022-10-18T20:51:35.199Z,45.75
2022-10-18T20:56:34.229Z,32.78
2022-10-18T20:59:01.529Z,39.42
2022-10-18T21:01:30.693Z,38.97
2022-10-18T21:04:00.265Z,39.78
2022-10-18T21:06:28.206Z,39.20
2022-10-18T21:08:57.871Z,33.40
2022-10-18T21:11:25.179Z,36.40
2022-10-18T21:13:58.911Z,38.08
2022-10-18T21:16:26.545Z,37.28
2022-10-18T21:18:53.677Z,35.80
2022-10-18T21:21:23.111Z,36.80
2022-10-18T21:23:50.514Z,40.97
2022-10-18T21:26:26.023Z,38.20
2022-10-18T21:28:54.517Z,33.08
2022-10-18T21:31:23.917Z,39.40
2022-10-18T21:33:56.283Z,41.28
2022-10-18T21:36:24.017Z,41.38
2022-10-18T21:38:53.755Z,46.92
2022-10-18T21:41:22.620Z,39.20
2022-10-18T21:43:55.373Z,44.45
2022-10-18T21:46:23.912Z,44.70
2022-10-18T21:48:52.681Z,45.28
2022-10-18T21:53:49.832Z,36.78
2022-10-18T21:56:21.376Z,38.30
2022-10-18T21:58:48.723Z,44.65
2022-10-18T22:01:32.139Z,38.88
2022-10-18T22:04:04.358Z,42.53
2022-10-18T22:06:40.559Z,38.35
2022-10-18T22:09:08.437Z,37.03
2022-10-18T22:11:39.309Z,42.97
2022-10-18T22:14:06.172Z,46.03
2022-10-18T22:16:32.868Z,35.65
2022-10-18T22:19:01.993Z,35.72
2022-10-18T22:21:29.119Z,49.53
2022-10-18T22:23:57.337Z,42.78
2022-10-18T22:26:27.660Z,36.90
2022-10-18T22:29:00.243Z,42.15
2022-10-18T22:31:39.195Z,34.83
2022-10-18T22:34:29.806Z,45.92
2022-10-18T22:36:56.776Z,44.13
2022-10-18T22:39:24.789Z,38.92
2022-10-18T22:41:55.820Z,39.63
2022-10-18T22:44:23.072Z,36.15
2022-10-18T22:46:49.681Z,39.08
2022-10-18T22:49:16.360Z,41.22
2022-10-18T22:51:43.203Z,40.20
2022-10-18T22:54:10.276Z,39.63
2022-10-18T22:56:36.949Z,41.83
2022-10-18T22:59:09.688Z,46.92
2022-10-18T23:01:36.496Z,46.42
2022-10-18T23:04:03.254Z,47.38
2022-10-18T23:06:32.931Z,48.05
2022-10-18T23:09:02.429Z,34.60
2022-10-18T23:11:29.517Z,40.10
2022-10-18T23:13:56.250Z,35.00
2022-10-18T23:16:25.809Z,46.03
2022-10-18T23:18:55.266Z,43.08
2022-10-18T23:21:24.346Z,41.40
2022-10-18T23:23:53.005Z,44.30
2022-10-18T23:26:22.657Z,41.92
2022-10-18T23:28:50.793Z,40.08
2022-10-18T23:31:21.541Z,47.13
2022-10-18T23:33:51.041Z,45.70
2022-10-18T23:36:18.331Z,42.42
2022-10-18T23:38:45.264Z,45.22
2022-10-18T23:41:13.615Z,42.95
2022-10-18T23:43:40.731Z,40.40
2022-10-18T23:46:07.891Z,47.80
2022-10-18T23:48:37.947Z,42.80
2022-10-18T23:51:05.333Z,45.80
2022-10-18T23:53:32.351Z,45.55
2022-10-18T23:56:07.502Z,51.05
2022-10-18T23:58:35.213Z,42.00
